»·PEaware :: DEPFZ UT25-40G

DEPFZ :: UT25-40G

FLIGHT INFORMATION

Flight Status: Arrived
Operator: Unknown
More flights by this operator :: More flights under this callsign
Pilot: Henrik G. (22897)
Aircraft: CESSNA 172 SKYHAWK
(C172)
More flights by this aircraft type
Origin: UT25 Monument Valley
United States
Destination: 40G Valle
United States
More flights between these airports :: More routes between these airports
Route:
File this flight plan on PilotEdge
Remarks:
Altitude:
(Current/Filed)
8,500ft
Speed:
(Current/Filed)
100kts
Departed: 07-Jan-19 11:59 AM
Arrived: 07-Jan-19 01:21 PM
Distance/Time
Traveled:
125nm/1:21
Distance/Time
To Go:
Arrived

Flight Plot

Page will automatically refresh every two minutes.

Flight plan parsing failed; only flown route is shown


Map Options




Map Legend


Flown Route
Filed Route
Departure Airport
Arrival Airport
Navaid (VOR, NDB)
Fix

Horizontal Profiles

Position Reports

Time Latitude Longitude Heading Altitude Ground
Speed
07-Jan-19 11:56 37.011761 -110.201875 83 5138ft 0kts
07-Jan-19 11:57 37.011754 -110.201796 116 5138ft 2kts
07-Jan-19 11:58 37.011672 -110.201453 348 5138ft 18kts
07-Jan-19 11:59 37.026147 -110.206327 273 5399ft 69kts
07-Jan-19 11:59 37.019456 -110.219464 184 5751ft 75kts
07-Jan-19 12:00 36.999358 -110.221836 194 6210ft 79kts
07-Jan-19 12:01 36.979888 -110.230805 210 6699ft 78kts
07-Jan-19 12:02 36.964768 -110.250480 235 7132ft 82kts
07-Jan-19 12:03 36.950908 -110.273098 228 7582ft 82kts
07-Jan-19 12:04 36.931905 -110.288415 194 8013ft 83kts
07-Jan-19 12:05 36.909330 -110.294920 203 8427ft 85kts
07-Jan-19 12:07 36.889170 -110.322954 224 8561ft 104kts
07-Jan-19 12:07 36.870934 -110.344433 221 8518ft 111kts
07-Jan-19 12:09 36.843228 -110.375235 223 8421ft 111kts
07-Jan-19 12:09 36.825822 -110.397739 228 8350ft 106kts
07-Jan-19 12:10 36.807796 -110.422893 227 8443ft 94kts
07-Jan-19 12:11 36.789990 -110.446835 224 8440ft 96kts
07-Jan-19 12:12 36.772191 -110.471635 231 8442ft 96kts
07-Jan-19 12:13 36.755281 -110.496542 226 8445ft 96kts
07-Jan-19 12:14 36.734801 -110.517744 208 8447ft 96kts
07-Jan-19 12:15 36.713268 -110.537349 220 8448ft 96kts
07-Jan-19 12:16 36.695956 -110.561645 233 8450ft 96kts
07-Jan-19 12:17 36.678122 -110.586166 221 8451ft 96kts
07-Jan-19 12:18 36.657852 -110.607889 219 8453ft 96kts
07-Jan-19 12:19 36.637654 -110.629580 225 8455ft 96kts
07-Jan-19 12:20 36.619078 -110.653429 222 8455ft 96kts
07-Jan-19 12:21 36.601176 -110.675942 228 8458ft 96kts
07-Jan-19 12:22 36.584496 -110.700520 228 8461ft 96kts
07-Jan-19 12:23 36.566966 -110.725746 219 8453ft 96kts
07-Jan-19 12:24 36.545070 -110.744846 222 8500ft 97kts
07-Jan-19 12:25 36.528255 -110.771588 231 8524ft 97kts
07-Jan-19 12:26 36.513539 -110.801004 238 8477ft 102kts
07-Jan-19 12:27 36.500062 -110.832959 239 8407ft 106kts
07-Jan-19 12:28 36.478571 -110.858760 220 8318ft 108kts
07-Jan-19 12:29 36.454766 -110.878100 203 8394ft 97kts
07-Jan-19 12:30 36.430892 -110.892828 212 8476ft 95kts
07-Jan-19 12:31 36.407699 -110.910378 214 8473ft 100kts
07-Jan-19 12:32 36.387120 -110.934511 223 8426ft 103kts
07-Jan-19 12:33 36.366488 -110.958471 222 8444ft 99kts
07-Jan-19 12:34 36.348230 -110.981222 226 8449ft 99kts
07-Jan-19 12:35 36.330557 -111.007137 236 8462ft 99kts
07-Jan-19 12:36 36.315178 -111.034790 231 8484ft 99kts
07-Jan-19 12:37 36.297541 -111.060780 232 8509ft 99kts
07-Jan-19 12:38 36.278246 -111.084929 206 8515ft 100kts
07-Jan-19 12:39 36.251650 -111.097911 202 8458ft 104kts
07-Jan-19 12:40 36.225752 -111.112907 210 8426ft 105kts
07-Jan-19 12:41 36.204010 -111.132031 219 8421ft 103kts
07-Jan-19 12:42 36.183511 -111.155667 241 8405ft 102kts
07-Jan-19 12:43 36.173421 -111.188739 252 8388ft 101kts
07-Jan-19 12:44 36.157207 -111.213737 206 8452ft 95kts
07-Jan-19 12:45 36.136710 -111.232769 244 8531ft 95kts
07-Jan-19 12:46 36.125265 -111.261146 241 8535ft 98kts
07-Jan-19 12:47 36.110629 -111.289363 224 8564ft 98kts
07-Jan-19 12:48 36.095068 -111.316879 241 8588ft 97kts
07-Jan-19 12:49 36.082525 -111.347725 239 8505ft 105kts
07-Jan-19 12:50 36.069408 -111.379521 256 8480ft 103kts
07-Jan-19 12:51 36.050587 -111.405629 225 8465ft 101kts
07-Jan-19 12:52 36.032096 -111.431864 227 8462ft 101kts
07-Jan-19 12:53 36.014610 -111.457614 235 8508ft 98kts
07-Jan-19 12:54 35.999188 -111.485796 242 8522ft 100kts
07-Jan-19 12:55 35.988220 -111.517179 246 8548ft 99kts
07-Jan-19 12:56 35.976201 -111.546441 247 8557ft 99kts
07-Jan-19 12:57 35.962608 -111.575856 237 8565ft 95kts
07-Jan-19 12:58 35.949204 -111.602151 237 8565ft 87kts
07-Jan-19 12:59 35.936644 -111.626800 237 8566ft 83kts
07-Jan-19 13:00 35.924615 -111.650434 237 8566ft 81kts
07-Jan-19 13:01 35.912861 -111.673565 237 8566ft 79kts
07-Jan-19 13:02 35.901455 -111.696054 237 8566ft 79kts
07-Jan-19 13:03 35.890302 -111.718090 237 8566ft 78kts
07-Jan-19 13:04 35.879050 -111.740373 237 8566ft 78kts
07-Jan-19 13:05 35.867856 -111.762590 237 8566ft 78kts
07-Jan-19 13:06 35.856427 -111.785325 237 8566ft 77kts
07-Jan-19 13:07 35.845101 -111.807909 237 8566ft 77kts
07-Jan-19 13:08 35.834591 -111.828916 237 8566ft 77kts
07-Jan-19 13:09 35.823373 -111.851385 238 8566ft 76kts
07-Jan-19 13:10 35.812390 -111.873413 238 8566ft 74kts
07-Jan-19 13:11 35.799369 -111.899622 238 8568ft 103kts
07-Jan-19 13:12 35.782657 -111.933589 238 8304ft 121kts
07-Jan-19 13:13 35.765226 -111.969144 238 8004ft 121kts
07-Jan-19 13:14 35.747863 -112.004635 238 7704ft 121kts
07-Jan-19 13:15 35.730521 -112.040159 238 7403ft 121kts
07-Jan-19 13:16 35.713192 -112.075734 238 7102ft 121kts
07-Jan-19 13:17 35.696815 -112.109421 239 7006ft 110kts
07-Jan-19 13:18 35.678627 -112.135334 204 6621ft 82kts
07-Jan-19 13:19 35.659422 -112.143998 199 6080ft 71kts
07-Jan-19 13:20 35.649879 -112.148042 75 5983ft 9kts
07-Jan-19 13:21 35.651198 -112.144301 67 5983ft 11kts
07-Jan-19 13:22 35.650339 -112.142939 241 5983ft 4kts
07-Jan-19 13:23 35.650331 -112.142961 247 5983ft 0kts

Navigation Log

Ident Type
Flight plan parsing failed, navigation log unavailable